Terminal Aerodrome Forecast
Issued by NWS

Home | Current Version | Previous Version | Text Only | Print | Product List | Glossary On
Versions: 1 2 3 4 5 6 7 8 9 10 11 12
000
FTUS46 KSGX 221734
TAFSNA
TAF
KSNA 221734Z 2218/2318 VRB05KT P6SM SKC
     FM230700 VRB05KT P6SM SKC WS015/05025KT
     FM231700 06012G20KT P6SM SKC=

USA.gov is the U.S. government's official web portal to all federal, state and local government web resources and services.